Time;durP1;ratioP1;P1;durP2;ratioP2;P2;SDS_P1;SDS_P2;PMS_P1;PMS_P2;Temp;Humidity;BMP_temperature;BMP_pressure;BME280_temperature;BME280_humidity;BME280_pressure;Samples;Min_cycle;Max_cycle;Signal;HPM_P1;HPM_P2
2023/10/22 00:00:29;;;;;;;3.23;2.00;;;11.70;99.90;;;;;;5055503;28;20500;-71
2023/10/22 00:02:57;;;;;;;5.10;2.03;;;11.70;99.90;;;;;;5054048;28;20446;-71
2023/10/22 00:05:25;;;;;;;3.13;2.03;;;11.70;99.90;;;;;;5055217;28;20433;-71
2023/10/22 00:07:53;;;;;;;2.90;1.50;;;11.70;99.90;;;;;;5054894;28;20473;-71
2023/10/22 00:10:23;;;;;;;3.80;1.47;;;11.70;99.90;;;;;;5053752;28;20498;-71
2023/10/22 00:12:51;;;;;;;2.93;1.70;;;11.70;99.90;;;;;;5055301;28;20474;-71
2023/10/22 00:15:20;;;;;;;3.40;1.87;;;11.70;99.90;;;;;;5054982;28;20487;-71
2023/10/22 00:17:48;;;;;;;4.47;1.90;;;11.70;99.90;;;;;;5055164;28;20481;-71
2023/10/22 00:20:17;;;;;;;2.53;1.50;;;11.70;99.90;;;;;;5054903;28;20790;-71
2023/10/22 00:22:45;;;;;;;1.83;1.47;;;11.70;99.90;;;;;;5055046;28;20943;-71
2023/10/22 00:25:13;;;;;;;3.23;1.90;;;11.70;99.90;;;;;;5055014;28;20437;-71
2023/10/22 00:27:42;;;;;;;4.10;1.60;;;11.60;99.90;;;;;;5055055;28;20490;-71
2023/10/22 00:30:11;;;;;;;6.00;1.40;;;11.70;99.90;;;;;;5053322;28;20488;-71
2023/10/22 00:32:39;;;;;;;5.33;1.60;;;11.70;99.90;;;;;;5053360;28;20947;-71
2023/10/22 00:35:08;;;;;;;5.57;2.00;;;11.70;99.90;;;;;;5053227;28;20447;-71
2023/10/22 00:37:36;;;;;;;7.10;2.10;;;11.70;99.90;;;;;;5054387;28;20456;-71
2023/10/22 00:40:05;;;;;;;4.43;1.73;;;11.70;99.90;;;;;;5053483;28;21049;-71
2023/10/22 00:42:33;;;;;;;5.00;1.80;;;11.70;99.90;;;;;;5054425;28;20438;-71
2023/10/22 00:45:03;;;;;;;8.60;2.17;;;11.70;99.90;;;;;;5054369;28;20789;-71
2023/10/22 00:47:33;;;;;;;6.00;2.00;;;11.70;99.90;;;;;;5054209;28;20500;-71
2023/10/22 00:50:02;;;;;;;2.03;1.47;;;11.60;99.90;;;;;;5054405;28;20466;-71
2023/10/22 00:52:31;;;;;;;4.13;1.70;;;11.70;99.90;;;;;;5052468;28;20521;-72
2023/10/22 00:55:00;;;;;;;3.80;1.73;;;11.70;99.90;;;;;;5054372;28;20802;-71
2023/10/22 00:57:29;;;;;;;2.97;1.60;;;11.60;99.90;;;;;;5052952;28;20497;-71
2023/10/22 00:59:57;;;;;;;3.40;1.70;;;11.60;99.90;;;;;;5054023;28;20931;-71
2023/10/22 01:02:27;;;;;;;2.67;1.43;;;11.60;99.90;;;;;;5052754;28;20484;-71
2023/10/22 01:04:56;;;;;;;3.70;1.60;;;11.60;99.90;;;;;;5052668;28;20483;-71
2023/10/22 01:07:24;;;;;;;3.77;1.90;;;11.60;99.90;;;;;;5052762;28;20474;-71
2023/10/22 01:09:52;;;;;;;2.83;1.60;;;11.60;99.90;;;;;;5053725;28;20963;-71
2023/10/22 01:12:21;;;;;;;2.50;1.50;;;11.50;99.90;;;;;;5054066;28;20434;-71
2023/10/22 01:14:49;;;;;;;6.30;2.13;;;11.50;99.90;;;;;;5053951;28;20537;-71
2023/10/22 01:17:17;;;;;;;3.07;1.60;;;11.50;99.90;;;;;;5054265;28;20458;-71
2023/10/22 01:19:47;;;;;;;3.60;1.93;;;11.50;99.90;;;;;;5053611;28;20935;-71
2023/10/22 01:22:15;;;;;;;3.00;1.70;;;11.40;99.90;;;;;;5052879;28;20450;-71
2023/10/22 01:24:44;;;;;;;3.00;1.57;;;11.40;99.90;;;;;;5053610;28;20473;-71
2023/10/22 01:27:14;;;;;;;3.13;1.80;;;11.40;99.90;;;;;;5053543;28;20830;-71
2023/10/22 01:29:42;;;;;;;2.93;1.57;;;11.40;99.90;;;;;;5053545;28;20466;-71
2023/10/22 01:32:10;;;;;;;6.20;2.43;;;11.40;99.90;;;;;;5052391;28;20457;-71
2023/10/22 01:34:38;;;;;;;4.73;1.40;;;11.30;99.90;;;;;;5052364;28;20446;-71
2023/10/22 01:37:06;;;;;;;3.90;1.47;;;11.30;99.90;;;;;;5052117;28;20891;-71
2023/10/22 01:39:34;;;;;;;4.60;1.27;;;11.30;99.90;;;;;;5052134;28;20854;-70
2023/10/22 01:42:04;;;;;;;2.70;1.43;;;11.30;99.90;;;;;;5052178;28;20954;-71
2023/10/22 01:44:32;;;;;;;3.00;1.80;;;11.30;99.90;;;;;;5053417;28;20434;-71
2023/10/22 01:47:00;;;;;;;2.90;1.30;;;11.20;99.90;;;;;;5052080;28;20465;-71
2023/10/22 01:49:29;;;;;;;5.23;1.63;;;11.20;99.90;;;;;;5051960;28;20474;-70
2023/10/22 01:51:57;;;;;;;3.50;1.60;;;11.20;99.90;;;;;;5053233;28;20434;-71
2023/10/22 01:54:25;;;;;;;4.00;1.50;;;11.20;99.90;;;;;;5053336;28;20433;-71
2023/10/22 01:56:53;;;;;;;5.43;1.70;;;11.20;99.90;;;;;;5051930;28;20553;-71
2023/10/22 01:59:23;;;;;;;3.90;1.50;;;11.20;99.90;;;;;;5051957;28;20525;-71
2023/10/22 02:01:51;;;;;;;3.70;1.70;;;11.20;99.90;;;;;;5052107;28;20997;-71
2023/10/22 02:04:19;;;;;;;3.80;1.77;;;11.20;99.90;;;;;;5055183;28;20434;-71
2023/10/22 02:06:47;;;;;;;4.83;1.90;;;11.10;99.90;;;;;;5057502;28;20460;-70
2023/10/22 02:09:16;;;;;;;5.17;1.97;;;11.10;99.90;;;;;;5057049;28;20828;-71
2023/10/22 02:11:44;;;;;;;5.13;1.90;;;11.10;99.90;;;;;;5057277;28;20498;-71
2023/10/22 02:14:13;;;;;;;3.77;1.53;;;11.10;99.90;;;;;;5057498;28;20434;-71
2023/10/22 02:16:42;;;;;;;3.83;1.40;;;11.10;99.90;;;;;;5055906;28;20514;-71
2023/10/22 02:19:10;;;;;;;5.47;2.20;;;11.10;99.90;;;;;;5057083;28;20851;-71
2023/10/22 02:21:38;;;;;;;3.67;1.90;;;11.10;99.90;;;;;;5057092;28;20441;-71
2023/10/22 02:24:07;;;;;;;3.23;1.70;;;11.10;99.90;;;;;;5055907;28;20456;-71
2023/10/22 02:26:35;;;;;;;3.37;1.60;;;11.10;99.90;;;;;;5056991;28;20433;-71
2023/10/22 02:29:04;;;;;;;6.30;2.10;;;11.10;99.90;;;;;;5057034;28;20441;-71
2023/10/22 02:31:32;;;;;;;4.20;1.70;;;11.10;99.90;;;;;;5057014;28;20473;-71
2023/10/22 02:34:06;;;;;;;3.27;1.30;;;11.10;99.90;;;;;;5056952;28;20525;-71
2023/10/22 02:36:34;;;;;;;2.53;1.30;;;11.10;99.90;;;;;;5055546;28;20465;-70
2023/10/22 02:39:04;;;;;;;4.43;1.57;;;11.10;99.90;;;;;;5055625;28;20528;-71
2023/10/22 02:41:32;;;;;;;3.33;1.53;;;11.10;99.90;;;;;;5057095;28;20472;-71
2023/10/22 02:44:00;;;;;;;4.03;1.70;;;11.10;99.90;;;;;;5055596;28;20520;-71
2023/10/22 02:46:28;;;;;;;3.80;1.83;;;11.00;99.90;;;;;;5055481;28;20857;-71
2023/10/22 02:48:58;;;;;;;2.93;1.40;;;11.10;99.90;;;;;;5057021;28;20785;-71
2023/10/22 02:51:27;;;;;;;4.60;1.50;;;11.10;99.90;;;;;;5055160;28;21062;-70
2023/10/22 02:53:55;;;;;;;4.47;1.30;;;11.10;99.90;;;;;;5055286;28;20500;-70
2023/10/22 02:56:23;;;;;;;3.53;1.47;;;11.10;99.90;;;;;;5056368;28;20803;-71
2023/10/22 02:58:51;;;;;;;2.77;1.30;;;11.10;99.90;;;;;;5055198;28;20450;-71
2023/10/22 03:01:19;;;;;;;4.43;1.53;;;11.10;99.90;;;;;;5055059;28;20525;-71
2023/10/22 03:03:48;;;;;;;2.77;1.20;;;11.00;99.90;;;;;;5055052;28;20488;-71
2023/10/22 03:06:17;;;;;;;7.13;3.63;;;11.10;99.90;;;;;;5054979;28;20982;-71
2023/10/22 03:08:47;;;;;;;10.03;7.60;;;11.10;99.90;;;;;;5055223;28;20544;-71
2023/10/22 03:11:17;;;;;;;9.30;6.63;;;11.10;99.90;;;;;;5056100;28;20461;-71
2023/10/22 03:13:45;;;;;;;5.40;1.80;;;11.10;99.90;;;;;;5056295;28;20524;-71
2023/10/22 03:16:15;;;;;;;3.23;2.23;;;11.10;99.90;;;;;;5054340;28;20485;-71
2023/10/22 03:18:45;;;;;;;10.30;6.60;;;11.10;99.90;;;;;;5056121;28;20852;-71
2023/10/22 03:21:14;;;;;;;5.33;2.73;;;11.10;99.90;;;;;;5055971;28;20438;-71
2023/10/22 03:23:42;;;;;;;2.77;1.50;;;11.10;99.90;;;;;;5054850;28;20441;-71
2023/10/22 03:26:14;;;;;;;2.97;1.50;;;11.10;99.90;;;;;;5056088;28;20820;-71
2023/10/22 03:28:43;;;;;;;4.97;1.60;;;11.10;99.90;;;;;;5056069;28;20460;-71
2023/10/22 03:31:12;;;;;;;2.17;1.40;;;11.10;99.90;;;;;;5055658;28;20466;-71
2023/10/22 03:33:41;;;;;;;2.87;1.70;;;11.10;99.90;;;;;;5054498;28;20499;-71
2023/10/22 03:36:11;;;;;;;5.43;1.60;;;11.10;99.90;;;;;;5054393;28;20446;-71
2023/10/22 03:38:40;;;;;;;6.63;1.50;;;11.10;99.90;;;;;;5055581;28;20450;-71
2023/10/22 03:41:08;;;;;;;2.63;1.30;;;11.10;99.90;;;;;;5055756;28;20438;-70
2023/10/22 03:43:38;;;;;;;2.67;1.27;;;11.20;99.90;;;;;;5055554;28;20441;-70
2023/10/22 03:46:06;;;;;;;4.67;1.50;;;11.10;99.90;;;;;;5055596;28;20507;-71
2023/10/22 03:48:35;;;;;;;3.27;1.30;;;11.10;99.90;;;;;;5055396;28;20450;-71
2023/10/22 03:51:04;;;;;;;3.53;1.47;;;11.10;99.90;;;;;;5055526;28;20489;-71
2023/10/22 03:53:32;;;;;;;3.83;1.97;;;11.10;99.90;;;;;;5055472;28;20476;-71
2023/10/22 03:56:01;;;;;;;2.60;1.30;;;11.10;99.90;;;;;;5055341;28;20434;-71
2023/10/22 03:58:29;;;;;;;3.20;1.17;;;11.10;99.90;;;;;;5055284;28;20460;-71
2023/10/22 04:00:58;;;;;;;5.30;2.00;;;11.10;99.90;;;;;;5055565;28;20439;-71
2023/10/22 04:03:26;;;;;;;5.47;1.47;;;11.10;99.90;;;;;;5055540;28;20441;-71
2023/10/22 04:05:56;;;;;;;4.37;1.50;;;11.10;99.90;;;;;;5055168;28;20446;-71
2023/10/22 04:08:25;;;;;;;5.37;1.70;;;11.10;99.90;;;;;;5054961;28;20466;-71
2023/10/22 04:10:54;;;;;;;6.67;1.90;;;11.10;99.90;;;;;;5055832;28;20474;-71
2023/10/22 04:13:22;;;;;;;3.43;1.90;;;11.10;99.90;;;;;;5055024;28;20529;-71
2023/10/22 04:15:51;;;;;;;3.43;1.60;;;11.10;99.90;;;;;;5053700;28;20537;-71
2023/10/22 04:18:21;;;;;;;3.27;1.77;;;11.10;99.90;;;;;;5055449;28;20595;-71
2023/10/22 04:20:50;;;;;;;4.43;1.30;;;11.10;99.90;;;;;;5055141;28;20434;-71
2023/10/22 04:23:19;;;;;;;4.80;1.70;;;11.10;99.90;;;;;;5055182;28;20433;-71
2023/10/22 04:25:47;;;;;;;8.70;1.90;;;11.10;99.90;;;;;;5054519;28;20492;-71
2023/10/22 04:28:16;;;;;;;2.53;1.20;;;11.10;99.90;;;;;;5054122;28;20454;-71
2023/10/22 04:30:44;;;;;;;2.80;1.87;;;11.10;99.90;;;;;;5054950;28;20557;-71
2023/10/22 04:33:13;;;;;;;3.70;1.87;;;11.10;99.90;;;;;;5054732;28;20936;-71
2023/10/22 04:35:42;;;;;;;4.03;1.50;;;11.10;99.90;;;;;;5054823;28;20442;-71
2023/10/22 04:38:13;;;;;;;3.13;1.63;;;11.10;99.90;;;;;;5054450;28;20481;-71
2023/10/22 04:40:42;;;;;;;3.20;1.53;;;11.10;99.90;;;;;;5054546;28;20418;-71
2023/10/22 04:43:12;;;;;;;3.40;1.63;;;11.10;99.90;;;;;;5054418;28;20441;-70
2023/10/22 04:45:46;;;;;;;5.27;1.50;;;11.10;99.90;;;;;;5054590;28;20525;-71
2023/10/22 04:48:15;;;;;;;4.53;2.10;;;11.10;99.90;;;;;;5054761;28;20825;-70
2023/10/22 04:50:45;;;;;;;2.67;1.70;;;11.10;99.90;;;;;;5054233;28;20434;-70
2023/10/22 04:53:13;;;;;;;2.50;1.47;;;11.10;99.90;;;;;;5054445;28;20422;-70
2023/10/22 04:55:41;;;;;;;3.20;1.40;;;11.10;99.90;;;;;;5054133;28;20438;-71
2023/10/22 04:58:09;;;;;;;3.80;1.30;;;11.10;99.90;;;;;;5054170;28;20454;-70
2023/10/22 05:00:37;;;;;;;4.50;1.90;;;11.10;99.90;;;;;;5054108;28;20438;-70
2023/10/22 05:03:05;;;;;;;5.10;2.77;;;11.20;99.90;;;;;;5054085;28;20438;-71
2023/10/22 05:05:36;;;;;;;5.33;2.67;;;11.20;99.90;;;;;;5052886;28;20446;-71
2023/10/22 05:08:06;;;;;;;3.80;1.90;;;11.20;99.90;;;;;;5054430;28;20493;-71
2023/10/22 05:10:38;;;;;;;3.40;1.87;;;11.20;99.90;;;;;;5056496;28;20481;-71
2023/10/22 05:13:06;;;;;;;3.33;1.20;;;11.20;99.90;;;;;;5055014;28;20418;-71
2023/10/22 05:15:34;;;;;;;3.83;2.00;;;11.20;99.90;;;;;;5056782;28;20430;-71
2023/10/22 05:18:05;;;;;;;4.40;1.30;;;11.20;99.90;;;;;;5053973;28;20458;-71
2023/10/22 05:20:33;;;;;;;4.30;1.77;;;11.20;99.90;;;;;;5053721;28;20441;-70
2023/10/22 05:23:03;;;;;;;4.30;1.90;;;11.20;99.90;;;;;;5053945;28;20430;-71
2023/10/22 05:25:33;;;;;;;1.90;1.10;;;11.30;99.90;;;;;;5054241;28;20488;-70
2023/10/22 05:28:01;;;;;;;3.70;1.30;;;11.30;99.90;;;;;;5052474;28;20902;-71
2023/10/22 05:30:31;;;;;;;2.73;1.50;;;11.30;99.90;;;;;;5053643;28;20484;-71
2023/10/22 05:33:00;;;;;;;1.90;1.17;;;11.30;99.90;;;;;;5054106;28;20801;-71
2023/10/22 05:35:29;;;;;;;3.60;1.10;;;11.40;99.90;;;;;;5053696;28;20839;-71
2023/10/22 05:37:57;;;;;;;2.60;1.10;;;11.40;99.90;;;;;;5053265;28;20507;-71
2023/10/22 05:40:25;;;;;;;2.67;1.03;;;11.40;99.90;;;;;;5053700;28;20444;-71
2023/10/22 05:42:54;;;;;;;3.40;1.50;;;11.40;99.90;;;;;;5053487;28;20434;-71
2023/10/22 05:45:23;;;;;;;4.00;1.30;;;11.40;99.90;;;;;;5053388;28;20435;-71
2023/10/22 05:47:51;;;;;;;2.37;1.10;;;11.40;99.90;;;;;;5054111;28;20445;-70
2023/10/22 05:50:19;;;;;;;3.20;1.50;;;11.40;99.90;;;;;;5052113;28;20438;-70
2023/10/22 05:52:50;;;;;;;3.50;1.67;;;11.50;99.90;;;;;;5053245;28;20519;-71
2023/10/22 05:55:18;;;;;;;2.67;1.40;;;11.50;99.90;;;;;;5053912;28;20464;-71
2023/10/22 05:57:47;;;;;;;4.30;1.40;;;11.50;99.90;;;;;;5051921;28;20466;-71
2023/10/22 06:00:17;;;;;;;3.60;1.47;;;11.50;99.90;;;;;;5053193;28;20844;-71
2023/10/22 06:02:45;;;;;;;4.50;3.27;;;11.50;99.90;;;;;;5053179;28;20442;-71
2023/10/22 06:05:13;;;;;;;3.30;1.27;;;11.50;99.90;;;;;;5053500;28;20438;-71
2023/10/22 06:07:52;;;;;;;3.10;1.50;;;11.50;99.90;;;;;;5053223;28;20473;-71
2023/10/22 06:10:21;;;;;;;5.27;2.30;;;11.50;99.90;;;;;;5053189;28;20422;-71
2023/10/22 06:12:49;;;;;;;2.57;1.40;;;11.60;99.90;;;;;;5052990;28;20524;-70
2023/10/22 06:15:19;;;;;;;6.67;1.67;;;11.60;99.90;;;;;;5053349;28;20837;-71
2023/10/22 06:17:47;;;;;;;3.27;1.90;;;11.60;99.90;;;;;;5053251;28;20558;-71
2023/10/22 06:20:16;;;;;;;1.70;1.03;;;11.60;99.90;;;;;;5053311;28;20509;-70
2023/10/22 06:22:46;;;;;;;2.50;1.23;;;11.60;99.90;;;;;;5053347;28;20887;-71
2023/10/22 06:25:15;;;;;;;2.50;1.50;;;11.60;99.90;;;;;;5053281;28;20418;-71
2023/10/22 06:27:43;;;;;;;3.47;1.70;;;11.70;99.90;;;;;;5052811;28;20511;-71
2023/10/22 06:30:12;;;;;;;2.50;1.10;;;11.70;99.90;;;;;;5053074;28;20796;-71
2023/10/22 06:32:41;;;;;;;3.70;1.77;;;11.70;99.90;;;;;;5053123;28;20508;-71
2023/10/22 06:35:11;;;;;;;5.40;2.40;;;11.70;99.90;;;;;;5052842;28;20441;-70
2023/10/22 06:37:39;;;;;;;4.37;1.87;;;11.70;99.90;;;;;;5052795;28;20556;-71
2023/10/22 06:40:08;;;;;;;4.83;1.70;;;11.80;99.90;;;;;;5052771;28;20430;-71
2023/10/22 06:42:36;;;;;;;3.37;1.40;;;11.80;99.90;;;;;;5051537;28;20873;-71
2023/10/22 06:45:06;;;;;;;3.00;1.50;;;11.80;99.90;;;;;;5052684;28;20529;-71
2023/10/22 06:47:36;;;;;;;3.00;1.43;;;11.80;99.90;;;;;;5052848;28;21024;-71
2023/10/22 06:50:07;;;;;;;3.50;1.40;;;11.90;99.90;;;;;;5053062;28;20438;-71
2023/10/22 06:52:36;;;;;;;3.70;1.23;;;11.90;99.90;;;;;;5056754;28;20927;-71
2023/10/22 06:55:05;;;;;;;3.33;1.30;;;12.00;99.90;;;;;;5056591;28;20434;-72
2023/10/22 06:57:33;;;;;;;3.43;1.23;;;11.90;99.90;;;;;;5056382;28;20629;-72
2023/10/22 07:00:01;;;;;;;3.20;1.40;;;12.00;99.90;;;;;;5056396;28;20512;-72
2023/10/22 07:02:29;;;;;;;3.17;1.37;;;12.00;99.90;;;;;;5056469;28;20461;-72
2023/10/22 07:04:58;;;;;;;3.10;1.37;;;12.00;99.90;;;;;;5055158;28;20504;-72
2023/10/22 07:07:29;;;;;;;4.53;1.10;;;12.10;99.90;;;;;;5056412;28;20462;-73
2023/10/22 07:09:57;;;;;;;2.27;1.30;;;12.10;99.90;;;;;;5056655;28;20509;-72
2023/10/22 07:12:26;;;;;;;4.20;1.50;;;12.20;99.90;;;;;;5056122;28;20488;-72
2023/10/22 07:14:55;;;;;;;2.27;1.20;;;12.20;99.90;;;;;;5056205;28;20525;-72
2023/10/22 07:17:23;;;;;;;3.43;1.47;;;12.20;99.90;;;;;;5056101;28;20507;-72
2023/10/22 07:19:51;;;;;;;3.60;1.20;;;12.30;99.90;;;;;;5056004;28;20434;-72
2023/10/22 07:22:19;;;;;;;2.83;1.30;;;12.30;99.90;;;;;;5056269;28;20521;-72
2023/10/22 07:24:51;;;;;;;4.30;1.83;;;12.30;99.90;;;;;;5055995;28;20434;-72
2023/10/22 07:27:20;;;;;;;3.77;2.10;;;12.30;99.90;;;;;;5056484;28;20465;-72
2023/10/22 07:29:48;;;;;;;4.57;4.10;;;12.30;99.90;;;;;;5060420;28;20442;-73
2023/10/22 07:32:16;;;;;;;3.70;3.00;;;12.30;99.90;;;;;;5058733;28;20474;-73
2023/10/22 07:34:44;;;;;;;4.30;2.00;;;12.30;99.90;;;;;;5058016;28;20928;-73
2023/10/22 07:37:14;;;;;;;3.40;2.10;;;12.20;99.90;;;;;;5058323;28;20458;-73
2023/10/22 07:39:42;;;;;;;2.83;2.50;;;12.30;99.90;;;;;;5055208;28;20450;-73
2023/10/22 07:42:11;;;;;;;3.33;2.83;;;12.20;99.90;;;;;;5056648;28;20488;-72
2023/10/22 07:44:39;;;;;;;2.77;2.47;;;12.20;99.90;;;;;;5056115;28;20438;-73
2023/10/22 07:47:08;;;;;;;2.87;2.50;;;12.20;99.90;;;;;;5056076;28;20508;-73
2023/10/22 07:49:36;;;;;;;2.90;2.27;;;12.20;99.90;;;;;;5055780;28;20955;-73
2023/10/22 07:52:04;;;;;;;2.97;2.60;;;12.20;99.90;;;;;;5054272;28;20450;-73
2023/10/22 07:54:33;;;;;;;2.67;2.37;;;12.20;99.90;;;;;;5055762;28;20545;-73
2023/10/22 07:57:01;;;;;;;3.40;2.80;;;12.10;99.90;;;;;;5055530;28;20462;-73
2023/10/22 07:59:31;;;;;;;2.80;2.60;;;12.20;99.90;;;;;;5055728;28;20434;-73
2023/10/22 08:01:59;;;;;;;4.27;3.10;;;12.10;99.90;;;;;;5054095;28;20434;-73
2023/10/22 08:04:27;;;;;;;4.73;3.77;;;12.20;99.90;;;;;;5054198;28;20438;-73
2023/10/22 08:06:55;;;;;;;4.03;3.67;;;12.20;99.90;;;;;;5055247;28;20462;-72
2023/10/22 08:09:23;;;;;;;4.57;3.83;;;12.20;99.90;;;;;;5055037;28;20450;-72
2023/10/22 08:11:51;;;;;;;4.10;3.80;;;12.20;99.90;;;;;;5054994;28;20796;-73
2023/10/22 08:14:19;;;;;;;4.40;4.00;;;12.20;99.90;;;;;;5054850;28;20504;-73
2023/10/22 08:16:50;;;;;;;4.17;3.77;;;12.20;99.90;;;;;;5054809;28;20446;-73
2023/10/22 08:19:18;;;;;;;3.93;3.63;;;12.30;99.90;;;;;;5055055;28;20461;-73
2023/10/22 08:21:46;;;;;;;4.90;3.40;;;12.30;99.90;;;;;;5053600;28;20438;-73
2023/10/22 08:24:14;;;;;;;5.77;3.37;;;12.30;99.90;;;;;;5053503;28;20457;-73
2023/10/22 08:26:42;;;;;;;3.60;3.30;;;12.40;99.90;;;;;;5054866;28;20454;-73
2023/10/22 08:29:10;;;;;;;3.20;2.90;;;12.40;99.90;;;;;;5054989;28;20963;-73
2023/10/22 08:31:39;;;;;;;3.47;3.10;;;12.40;99.90;;;;;;5054919;28;20994;-73
2023/10/22 08:34:08;;;;;;;4.27;3.40;;;12.40;99.90;;;;;;5053291;28;20473;-73
2023/10/22 08:36:37;;;;;;;3.13;2.80;;;12.40;99.90;;;;;;5055047;28;20928;-73
2023/10/22 08:39:08;;;;;;;3.27;3.00;;;12.40;99.90;;;;;;5053224;28;20442;-73
2023/10/22 08:41:45;;;;;;;3.47;3.17;;;12.40;99.90;;;;;;5054901;28;21006;-73
2023/10/22 08:44:15;;;;;;;2.63;2.43;;;12.40;99.90;;;;;;5054545;28;20508;-73
2023/10/22 08:46:43;;;;;;;3.53;3.00;;;12.40;99.90;;;;;;5053305;28;20497;-72
2023/10/22 08:49:15;;;;;;;4.33;3.00;;;12.40;99.90;;;;;;5054312;28;20508;-73
2023/10/22 08:51:45;;;;;;;3.80;3.10;;;12.40;99.90;;;;;;5054341;28;20420;-73
2023/10/22 08:54:13;;;;;;;3.60;3.30;;;12.40;99.90;;;;;;5054715;28;20501;-73
2023/10/22 08:56:43;;;;;;;3.70;3.40;;;12.40;99.90;;;;;;5054295;28;20971;-73
2023/10/22 08:59:12;;;;;;;3.93;3.47;;;12.40;99.90;;;;;;5054228;28;20894;-73
2023/10/22 09:01:40;;;;;;;4.50;3.63;;;12.40;99.90;;;;;;5054456;28;20462;-73
2023/10/22 09:04:08;;;;;;;3.87;3.47;;;12.40;99.90;;;;;;5054347;28;20441;-73
2023/10/22 09:06:38;;;;;;;4.70;4.30;;;12.40;99.90;;;;;;5054360;28;20426;-73
2023/10/22 09:09:07;;;;;;;4.40;4.00;;;12.40;99.90;;;;;;5054029;28;20488;-73
2023/10/22 09:11:36;;;;;;;4.60;4.20;;;12.40;99.90;;;;;;5052864;28;20442;-73
2023/10/22 09:14:22;;;;;;;5.30;4.30;;;12.50;99.90;;;;;;5053580;28;20473;-73
2023/10/22 09:16:50;;;;;;;4.63;3.70;;;12.50;99.90;;;;;;5054416;28;20462;-73
2023/10/22 09:19:37;;;;;;;4.47;4.07;;;12.50;99.90;;;;;;5054097;28;20919;-73
2023/10/22 09:22:06;;;;;;;8.47;4.77;;;12.50;99.90;;;;;;5054071;28;20425;-73
2023/10/22 09:24:36;;;;;;;4.80;4.40;;;12.50;99.90;;;;;;5053659;28;20430;-73
2023/10/22 09:27:05;;;;;;;5.17;4.60;;;12.60;99.90;;;;;;5053086;28;20504;-73
2023/10/22 09:29:33;;;;;;;6.70;5.13;;;12.60;99.90;;;;;;5052593;28;20998;-73
2023/10/22 09:32:01;;;;;;;5.43;4.40;;;12.60;99.90;;;;;;5053883;28;20800;-73
2023/10/22 09:34:32;;;;;;;5.00;4.50;;;12.60;99.90;;;;;;5052404;28;20512;-73
2023/10/22 09:37:00;;;;;;;4.37;3.97;;;12.60;99.90;;;;;;5053423;28;20492;-73
2023/10/22 09:39:37;;;;;;;4.57;4.17;;;12.70;99.90;;;;;;5053817;28;20477;-73
2023/10/22 09:42:06;;;;;;;3.93;3.20;;;12.60;99.90;;;;;;5052639;28;20946;-73
2023/10/22 09:44:39;;;;;;;4.40;2.57;;;12.60;99.90;;;;;;5053387;28;20896;-73
2023/10/22 09:47:08;;;;;;;3.00;2.17;;;12.60;99.90;;;;;;5053302;28;20809;-73
2023/10/22 09:49:38;;;;;;;1.87;1.67;;;12.70;99.90;;;;;;5053399;28;20457;-70
2023/10/22 09:52:07;;;;;;;2.37;1.70;;;12.60;99.90;;;;;;5054685;28;20425;-72
2023/10/22 09:54:41;;;;;;;1.70;1.50;;;12.70;99.90;;;;;;5052390;28;20858;-72
2023/10/22 09:57:13;;;;;;;2.47;1.00;;;12.70;99.90;;;;;;5053522;28;20889;-72
2023/10/22 09:59:41;;;;;;;1.70;1.10;;;12.70;99.90;;;;;;5053487;28;20418;-72
2023/10/22 10:02:14;;;;;;;2.23;1.30;;;12.70;99.90;;;;;;5053404;28;20430;-72
2023/10/22 10:04:50;;;;;;;3.47;1.70;;;12.70;99.90;;;;;;5053929;28;20446;-72
2023/10/22 10:07:20;;;;;;;2.60;1.80;;;12.80;99.90;;;;;;5052449;28;20498;-72
2023/10/22 10:09:51;;;;;;;3.07;2.17;;;12.80;99.90;;;;;;5053767;28;20450;-72
2023/10/22 10:12:21;;;;;;;4.60;2.47;;;12.80;99.90;;;;;;5053919;28;20434;-72
2023/10/22 10:14:50;;;;;;;3.43;2.77;;;12.90;99.90;;;;;;5052627;28;20466;-71
2023/10/22 10:17:19;;;;;;;4.07;3.50;;;13.00;99.90;;;;;;5052919;28;20492;-72
2023/10/22 10:19:48;;;;;;;4.33;3.90;;;13.00;99.90;;;;;;5054571;28;20438;-72
2023/10/22 10:22:44;;;;;;;5.77;3.90;;;13.00;99.90;;;;;;5054424;28;20461;-72
2023/10/22 10:25:28;;;;;;;4.87;4.37;;;13.10;99.90;;;;;;5032878;28;20969;-72
2023/10/22 10:27:57;;;;;;;5.40;4.50;;;13.10;99.90;;;;;;5058820;28;20828;-72
2023/10/22 10:30:25;;;;;;;5.20;4.70;;;13.20;99.90;;;;;;5057178;28;20433;-72
2023/10/22 10:32:53;;;;;;;5.83;5.23;;;13.20;99.90;;;;;;5057667;28;20438;-72
2023/10/22 10:35:46;;;;;;;4.47;4.07;;;13.30;99.90;;;;;;5058573;28;20454;-71
2023/10/22 10:38:22;;;;;;;6.70;4.60;;;13.40;99.90;;;;;;5057871;28;20560;-71
2023/10/22 10:40:53;;;;;;;4.60;3.90;;;13.40;99.90;;;;;;5057272;28;20426;-71
2023/10/22 10:43:57;;;;;;;3.77;3.47;;;13.50;99.90;;;;;;5057339;28;20434;-71
2023/10/22 10:46:27;;;;;;;5.53;4.03;;;13.60;99.90;;;;;;5056748;28;20444;-72
2023/10/22 10:48:56;;;;;;;5.40;3.30;;;13.60;99.90;;;;;;5056717;28;20418;-72
2023/10/22 10:51:25;;;;;;;4.33;3.10;;;13.70;99.90;;;;;;5056609;28;20449;-71
2023/10/22 10:54:14;;;;;;;4.03;3.40;;;13.70;99.90;;;;;;5056786;28;20437;-71
2023/10/22 10:56:50;;;;;;;5.50;3.30;;;13.80;99.90;;;;;;5056825;28;21026;-71
2023/10/22 10:59:32;;;;;;;4.90;3.07;;;13.90;99.90;;;;;;5057069;28;20417;-72
2023/10/22 11:02:04;;;;;;;4.10;3.20;;;14.00;99.90;;;;;;5055620;28;20559;-72
2023/10/22 11:04:32;;;;;;;4.10;2.90;;;14.00;99.90;;;;;;5057022;28;20414;-72
2023/10/22 11:07:01;;;;;;;4.20;2.90;;;14.00;99.90;;;;;;5057090;28;20449;-71
2023/10/22 11:09:34;;;;;;;4.43;2.10;;;14.00;99.90;;;;;;5057137;28;20993;-71
2023/10/22 11:12:04;;;;;;;5.37;2.97;;;14.00;99.90;;;;;;5056608;28;20430;-72
2023/10/22 11:14:33;;;;;;;3.43;2.30;;;14.00;99.90;;;;;;5056717;28;20472;-72
2023/10/22 11:17:04;;;;;;;5.30;2.13;;;14.00;99.90;;;;;;5057072;28;20846;-72
2023/10/22 11:19:33;;;;;;;2.20;1.67;;;14.00;99.90;;;;;;5057066;28;20442;-72
2023/10/22 11:22:02;;;;;;;4.23;1.90;;;14.00;99.90;;;;;;5057539;28;20442;-71
2023/10/22 11:24:32;;;;;;;3.10;2.00;;;14.10;99.90;;;;;;5055828;28;20528;-72
2023/10/22 11:27:02;;;;;;;4.07;2.20;;;14.10;99.90;;;;;;5057059;28;20993;-71
2023/10/22 11:29:39;;;;;;;2.70;2.10;;;14.10;99.90;;;;;;5056026;28;20442;-71
2023/10/22 11:32:12;;;;;;;3.60;1.90;;;14.10;99.90;;;;;;5056220;28;20452;-72
2023/10/22 11:34:51;;;;;;;2.53;1.70;;;14.20;99.90;;;;;;5057632;28;20523;-72
2023/10/22 11:37:23;;;;;;;2.40;1.77;;;14.20;99.90;;;;;;5057150;28;20461;-72
2023/10/22 11:39:51;;;;;;;3.97;2.30;;;14.20;99.90;;;;;;5055862;28;20469;-72
2023/10/22 11:42:20;;;;;;;3.30;1.80;;;14.30;99.90;;;;;;5057102;28;20800;-72
2023/10/22 11:44:49;;;;;;;3.70;2.20;;;14.30;99.90;;;;;;5057272;28;20994;-72
2023/10/22 11:47:26;;;;;;;3.40;1.70;;;14.20;99.90;;;;;;5055058;28;21037;-72
2023/10/22 11:49:55;;;;;;;3.53;1.67;;;14.30;99.90;;;;;;5056111;28;20892;-72
2023/10/22 11:52:49;;;;;;;3.23;1.53;;;14.30;99.90;;;;;;5056657;28;20441;-71
2023/10/22 11:55:18;;;;;;;3.40;1.90;;;14.30;99.90;;;;;;5056666;28;20482;-72
2023/10/22 11:58:03;;;;;;;3.67;1.70;;;14.20;99.90;;;;;;5056588;28;20458;-72
2023/10/22 12:00:32;;;;;;;7.17;2.27;;;14.20;99.90;;;;;;5054804;28;20450;-72
2023/10/22 12:03:01;;;;;;;2.50;2.07;;;14.20;99.90;;;;;;5055022;28;20536;-72
2023/10/22 12:05:30;;;;;;;4.80;1.87;;;14.20;99.90;;;;;;5057135;28;20430;-72
2023/10/22 12:07:58;;;;;;;3.60;1.83;;;14.20;99.90;;;;;;5057197;28;20458;-72
2023/10/22 12:10:26;;;;;;;2.50;1.97;;;14.30;99.90;;;;;;5055689;28;20481;-72
2023/10/22 12:12:57;;;;;;;3.80;1.73;;;14.30;99.90;;;;;;5055539;28;20438;-72
2023/10/22 12:15:26;;;;;;;3.57;1.90;;;14.30;99.90;;;;;;5056898;28;20470;-72
2023/10/22 12:17:54;;;;;;;3.63;2.20;;;14.30;99.90;;;;;;5056972;28;20485;-72
2023/10/22 12:20:24;;;;;;;2.43;1.90;;;14.40;99.90;;;;;;5056449;28;20533;-72
2023/10/22 12:22:52;;;;;;;2.60;2.10;;;14.40;99.90;;;;;;5056722;28;20430;-72
2023/10/22 12:25:21;;;;;;;2.27;2.07;;;14.40;99.90;;;;;;5056830;28;20534;-72
2023/10/22 12:27:49;;;;;;;5.13;2.00;;;14.40;99.90;;;;;;5055886;28;20477;-72
2023/10/22 12:30:17;;;;;;;2.40;1.80;;;14.50;99.90;;;;;;5056971;28;20438;-72
2023/10/22 12:32:46;;;;;;;3.77;2.00;;;14.50;99.90;;;;;;5057079;28;20477;-72
2023/10/22 12:35:14;;;;;;;2.43;2.23;;;14.60;99.90;;;;;;5056789;28;20473;-72
2023/10/22 12:37:44;;;;;;;3.40;2.57;;;14.70;99.90;;;;;;5056106;28;20461;-71
2023/10/22 12:40:12;;;;;;;3.97;2.30;;;14.70;99.90;;;;;;5054753;28;20477;-72
2023/10/22 12:42:42;;;;;;;3.40;2.30;;;14.80;99.90;;;;;;5055859;28;20529;-72
2023/10/22 12:45:11;;;;;;;3.70;2.13;;;14.80;99.90;;;;;;5055898;28;20437;-72
2023/10/22 12:47:40;;;;;;;2.30;2.10;;;14.90;99.90;;;;;;5055090;28;20988;-71
2023/10/22 12:50:09;;;;;;;2.70;2.27;;;15.00;99.90;;;;;;5055857;28;20496;-72
2023/10/22 12:52:37;;;;;;;3.00;2.70;;;15.00;99.90;;;;;;5055150;28;20470;-72
2023/10/22 12:55:08;;;;;;;2.80;2.30;;;15.00;99.90;;;;;;5053833;28;20462;-72
2023/10/22 12:57:36;;;;;;;2.60;2.30;;;15.00;99.90;;;;;;5055139;28;20460;-72
2023/10/22 13:00:10;;;;;;;5.53;3.37;;;15.10;99.90;;;;;;5053923;28;20449;-72